sensor_id;sensor_type;location;lat;lon;timestamp;P1;durP1;ratioP1;P2;durP2;ratioP2
63536;SDS011;49686;51.880;5.632;2024-01-30T00:00:13;12.10;;;9.23;;
63536;SDS011;49686;51.880;5.632;2024-01-30T00:02:40;16.83;;;11.02;;
63536;SDS011;49686;51.880;5.632;2024-01-30T00:05:07;12.85;;;8.60;;
63536;SDS011;49686;51.880;5.632;2024-01-30T00:07:34;14.93;;;9.02;;
63536;SDS011;49686;51.880;5.632;2024-01-30T00:10:03;14.88;;;9.68;;
63536;SDS011;49686;51.880;5.632;2024-01-30T00:14:57;14.00;;;9.65;;
63536;SDS011;49686;51.880;5.632;2024-01-30T00:17:24;12.40;;;8.80;;
63536;SDS011;49686;51.880;5.632;2024-01-30T00:19:51;10.60;;;7.38;;
63536;SDS011;49686;51.880;5.632;2024-01-30T00:22:18;11.48;;;8.68;;
63536;SDS011;49686;51.880;5.632;2024-01-30T00:24:45;12.68;;;8.73;;
63536;SDS011;49686;51.880;5.632;2024-01-30T00:27:13;13.95;;;9.00;;
63536;SDS011;49686;51.880;5.632;2024-01-30T00:29:40;13.15;;;9.77;;
63536;SDS011;49686;51.880;5.632;2024-01-30T00:32:07;11.77;;;8.95;;
63536;SDS011;49686;51.880;5.632;2024-01-30T00:34:34;10.98;;;7.72;;
63536;SDS011;49686;51.880;5.632;2024-01-30T00:37:01;12.30;;;8.55;;
63536;SDS011;49686;51.880;5.632;2024-01-30T00:39:28;12.57;;;8.75;;
63536;SDS011;49686;51.880;5.632;2024-01-30T00:41:55;12.98;;;8.75;;
63536;SDS011;49686;51.880;5.632;2024-01-30T00:44:23;15.18;;;9.20;;
63536;SDS011;49686;51.880;5.632;2024-01-30T00:46:50;14.88;;;9.45;;
63536;SDS011;49686;51.880;5.632;2024-01-30T00:49:16;12.20;;;7.13;;
63536;SDS011;49686;51.880;5.632;2024-01-30T00:51:43;12.63;;;8.70;;
63536;SDS011;49686;51.880;5.632;2024-01-30T00:54:10;14.77;;;8.77;;
63536;SDS011;49686;51.880;5.632;2024-01-30T00:56:37;12.45;;;8.57;;
63536;SDS011;49686;51.880;5.632;2024-01-30T00:59:04;11.82;;;7.95;;
63536;SDS011;49686;51.880;5.632;2024-01-30T01:01:32;13.63;;;8.35;;
63536;SDS011;49686;51.880;5.632;2024-01-30T01:03:59;12.75;;;8.18;;
63536;SDS011;49686;51.880;5.632;2024-01-30T01:06:26;13.55;;;8.45;;
63536;SDS011;49686;51.880;5.632;2024-01-30T01:08:53;15.50;;;9.00;;
63536;SDS011;49686;51.880;5.632;2024-01-30T01:11:20;13.65;;;9.48;;
63536;SDS011;49686;51.880;5.632;2024-01-30T01:13:47;13.05;;;9.00;;
63536;SDS011;49686;51.880;5.632;2024-01-30T01:16:14;15.95;;;9.43;;
63536;SDS011;49686;51.880;5.632;2024-01-30T01:18:42;12.95;;;9.07;;
63536;SDS011;49686;51.880;5.632;2024-01-30T01:21:09;14.15;;;9.85;;
63536;SDS011;49686;51.880;5.632;2024-01-30T01:23:36;13.45;;;9.07;;
63536;SDS011;49686;51.880;5.632;2024-01-30T01:26:03;15.05;;;9.05;;
63536;SDS011;49686;51.880;5.632;2024-01-30T01:28:30;14.48;;;9.80;;
63536;SDS011;49686;51.880;5.632;2024-01-30T01:30:57;14.43;;;8.75;;
63536;SDS011;49686;51.880;5.632;2024-01-30T01:33:24;14.10;;;10.23;;
63536;SDS011;49686;51.880;5.632;2024-01-30T01:35:53;15.05;;;9.50;;
63536;SDS011;49686;51.880;5.632;2024-01-30T01:38:19;14.75;;;9.20;;
63536;SDS011;49686;51.880;5.632;2024-01-30T01:40:46;12.18;;;8.07;;
63536;SDS011;49686;51.880;5.632;2024-01-30T01:43:13;15.45;;;9.93;;
63536;SDS011;49686;51.880;5.632;2024-01-30T01:45:40;15.02;;;8.80;;
63536;SDS011;49686;51.880;5.632;2024-01-30T01:48:07;10.55;;;7.40;;
63536;SDS011;49686;51.880;5.632;2024-01-30T01:50:35;13.48;;;8.23;;
63536;SDS011;49686;51.880;5.632;2024-01-30T01:53:04;14.20;;;9.60;;
63536;SDS011;49686;51.880;5.632;2024-01-30T01:55:33;15.68;;;9.75;;
63536;SDS011;49686;51.880;5.632;2024-01-30T01:58:01;13.68;;;9.57;;
63536;SDS011;49686;51.880;5.632;2024-01-30T02:00:28;14.27;;;8.50;;
63536;SDS011;49686;51.880;5.632;2024-01-30T02:02:56;15.15;;;9.75;;
63536;SDS011;49686;51.880;5.632;2024-01-30T02:05:23;13.98;;;9.02;;
63536;SDS011;49686;51.880;5.632;2024-01-30T02:07:50;12.52;;;8.95;;
63536;SDS011;49686;51.880;5.632;2024-01-30T02:10:19;12.50;;;8.40;;
63536;SDS011;49686;51.880;5.632;2024-01-30T02:12:46;13.82;;;9.82;;
63536;SDS011;49686;51.880;5.632;2024-01-30T02:15:14;16.67;;;9.77;;
63536;SDS011;49686;51.880;5.632;2024-01-30T02:17:41;13.85;;;8.27;;
63536;SDS011;49686;51.880;5.632;2024-01-30T02:20:08;12.88;;;8.43;;
63536;SDS011;49686;51.880;5.632;2024-01-30T02:22:37;13.57;;;8.85;;
63536;SDS011;49686;51.880;5.632;2024-01-30T02:25:06;12.68;;;8.55;;
63536;SDS011;49686;51.880;5.632;2024-01-30T02:27:33;12.55;;;8.70;;
63536;SDS011;49686;51.880;5.632;2024-01-30T02:30:00;13.05;;;8.60;;
63536;SDS011;49686;51.880;5.632;2024-01-30T02:32:27;12.05;;;8.65;;
63536;SDS011;49686;51.880;5.632;2024-01-30T02:34:54;12.90;;;8.52;;
63536;SDS011;49686;51.880;5.632;2024-01-30T02:37:21;13.07;;;8.43;;
63536;SDS011;49686;51.880;5.632;2024-01-30T02:39:49;14.25;;;9.48;;
63536;SDS011;49686;51.880;5.632;2024-01-30T02:42:16;13.98;;;7.57;;
63536;SDS011;49686;51.880;5.632;2024-01-30T02:44:43;14.95;;;8.20;;
63536;SDS011;49686;51.880;5.632;2024-01-30T02:47:10;13.65;;;9.23;;
63536;SDS011;49686;51.880;5.632;2024-01-30T02:49:37;12.95;;;8.07;;
63536;SDS011;49686;51.880;5.632;2024-01-30T02:52:04;13.35;;;8.18;;
63536;SDS011;49686;51.880;5.632;2024-01-30T02:54:31;12.52;;;8.75;;
63536;SDS011;49686;51.880;5.632;2024-01-30T02:56:59;12.65;;;7.90;;
63536;SDS011;49686;51.880;5.632;2024-01-30T02:59:26;12.82;;;8.48;;
63536;SDS011;49686;51.880;5.632;2024-01-30T03:01:53;12.13;;;8.68;;
63536;SDS011;49686;51.880;5.632;2024-01-30T03:04:20;13.80;;;8.10;;
63536;SDS011;49686;51.880;5.632;2024-01-30T03:06:47;13.38;;;8.88;;
63536;SDS011;49686;51.880;5.632;2024-01-30T03:09:15;13.63;;;8.70;;
63536;SDS011;49686;51.880;5.632;2024-01-30T03:11:42;11.50;;;8.05;;
63536;SDS011;49686;51.880;5.632;2024-01-30T03:14:11;13.32;;;9.50;;
63536;SDS011;49686;51.880;5.632;2024-01-30T03:16:37;14.32;;;9.02;;
63536;SDS011;49686;51.880;5.632;2024-01-30T03:19:05;12.05;;;8.30;;
63536;SDS011;49686;51.880;5.632;2024-01-30T03:21:33;13.93;;;9.10;;
63536;SDS011;49686;51.880;5.632;2024-01-30T03:23:59;14.73;;;10.40;;
63536;SDS011;49686;51.880;5.632;2024-01-30T03:26:26;12.68;;;8.65;;
63536;SDS011;49686;51.880;5.632;2024-01-30T03:28:53;12.90;;;8.32;;
63536;SDS011;49686;51.880;5.632;2024-01-30T03:31:21;12.32;;;9.18;;
63536;SDS011;49686;51.880;5.632;2024-01-30T03:33:48;15.35;;;9.75;;
63536;SDS011;49686;51.880;5.632;2024-01-30T03:36:15;14.57;;;9.52;;
63536;SDS011;49686;51.880;5.632;2024-01-30T03:38:42;12.98;;;9.25;;
63536;SDS011;49686;51.880;5.632;2024-01-30T03:41:09;11.82;;;8.63;;
63536;SDS011;49686;51.880;5.632;2024-01-30T03:43:36;11.98;;;7.85;;
63536;SDS011;49686;51.880;5.632;2024-01-30T03:46:03;12.52;;;8.52;;
63536;SDS011;49686;51.880;5.632;2024-01-30T03:48:32;12.02;;;7.47;;
63536;SDS011;49686;51.880;5.632;2024-01-30T03:50:58;11.88;;;7.78;;
63536;SDS011;49686;51.880;5.632;2024-01-30T03:53:25;14.75;;;8.57;;
63536;SDS011;49686;51.880;5.632;2024-01-30T03:55:52;13.20;;;8.05;;
63536;SDS011;49686;51.880;5.632;2024-01-30T03:58:19;13.13;;;7.78;;
63536;SDS011;49686;51.880;5.632;2024-01-30T04:00:46;12.73;;;8.13;;
63536;SDS011;49686;51.880;5.632;2024-01-30T04:03:14;15.73;;;9.15;;
63536;SDS011;49686;51.880;5.632;2024-01-30T04:05:42;14.07;;;8.48;;
63536;SDS011;49686;51.880;5.632;2024-01-30T04:08:09;10.77;;;7.22;;
63536;SDS011;49686;51.880;5.632;2024-01-30T04:10:36;12.65;;;8.23;;
63536;SDS011;49686;51.880;5.632;2024-01-30T04:13:03;12.25;;;8.13;;
63536;SDS011;49686;51.880;5.632;2024-01-30T04:15:30;12.25;;;8.60;;
63536;SDS011;49686;51.880;5.632;2024-01-30T04:17:57;14.20;;;8.55;;
63536;SDS011;49686;51.880;5.632;2024-01-30T04:20:24;13.25;;;8.35;;
63536;SDS011;49686;51.880;5.632;2024-01-30T04:22:52;11.80;;;8.15;;
63536;SDS011;49686;51.880;5.632;2024-01-30T04:25:19;11.52;;;8.00;;
63536;SDS011;49686;51.880;5.632;2024-01-30T04:27:46;10.68;;;7.78;;
63536;SDS011;49686;51.880;5.632;2024-01-30T04:30:13;11.02;;;8.27;;
63536;SDS011;49686;51.880;5.632;2024-01-30T04:32:40;12.07;;;7.63;;
63536;SDS011;49686;51.880;5.632;2024-01-30T04:35:07;12.00;;;8.68;;
63536;SDS011;49686;51.880;5.632;2024-01-30T04:37:37;13.68;;;8.43;;
63536;SDS011;49686;51.880;5.632;2024-01-30T04:40:06;12.63;;;8.30;;
63536;SDS011;49686;51.880;5.632;2024-01-30T04:42:34;11.23;;;7.80;;
63536;SDS011;49686;51.880;5.632;2024-01-30T04:45:00;14.43;;;8.20;;
63536;SDS011;49686;51.880;5.632;2024-01-30T04:47:27;14.77;;;8.98;;
63536;SDS011;49686;51.880;5.632;2024-01-30T04:49:54;11.15;;;7.93;;
63536;SDS011;49686;51.880;5.632;2024-01-30T04:52:21;11.50;;;7.70;;
63536;SDS011;49686;51.880;5.632;2024-01-30T04:54:48;11.50;;;7.97;;
63536;SDS011;49686;51.880;5.632;2024-01-30T04:57:16;10.65;;;7.32;;
63536;SDS011;49686;51.880;5.632;2024-01-30T04:59:43;12.98;;;7.68;;
63536;SDS011;49686;51.880;5.632;2024-01-30T05:02:10;12.18;;;8.25;;
63536;SDS011;49686;51.880;5.632;2024-01-30T05:04:37;12.60;;;7.85;;
63536;SDS011;49686;51.880;5.632;2024-01-30T05:07:04;10.77;;;7.07;;
63536;SDS011;49686;51.880;5.632;2024-01-30T05:09:31;10.48;;;7.53;;
63536;SDS011;49686;51.880;5.632;2024-01-30T05:11:58;11.25;;;8.25;;
63536;SDS011;49686;51.880;5.632;2024-01-30T05:14:26;9.48;;;7.25;;
63536;SDS011;49686;51.880;5.632;2024-01-30T05:16:53;11.13;;;7.40;;
63536;SDS011;49686;51.880;5.632;2024-01-30T05:19:20;11.18;;;7.15;;
63536;SDS011;49686;51.880;5.632;2024-01-30T05:21:47;10.27;;;7.80;;
63536;SDS011;49686;51.880;5.632;2024-01-30T05:24:14;11.60;;;7.32;;
63536;SDS011;49686;51.880;5.632;2024-01-30T05:26:40;10.32;;;6.90;;
63536;SDS011;49686;51.880;5.632;2024-01-30T05:29:07;11.57;;;7.90;;
63536;SDS011;49686;51.880;5.632;2024-01-30T05:31:35;16.77;;;7.30;;
63536;SDS011;49686;51.880;5.632;2024-01-30T05:34:02;12.10;;;7.95;;
63536;SDS011;49686;51.880;5.632;2024-01-30T05:36:29;12.13;;;7.38;;
63536;SDS011;49686;51.880;5.632;2024-01-30T05:38:56;10.35;;;7.00;;
63536;SDS011;49686;51.880;5.632;2024-01-30T05:41:23;11.88;;;7.80;;
63536;SDS011;49686;51.880;5.632;2024-01-30T05:43:50;11.75;;;7.63;;
63536;SDS011;49686;51.880;5.632;2024-01-30T05:46:20;11.93;;;7.35;;
63536;SDS011;49686;51.880;5.632;2024-01-30T05:48:52;12.73;;;7.32;;
63536;SDS011;49686;51.880;5.632;2024-01-30T05:51:19;9.40;;;6.40;;
63536;SDS011;49686;51.880;5.632;2024-01-30T05:53:46;11.45;;;7.28;;
63536;SDS011;49686;51.880;5.632;2024-01-30T05:56:13;13.95;;;7.75;;
63536;SDS011;49686;51.880;5.632;2024-01-30T05:58:40;14.07;;;8.40;;
63536;SDS011;49686;51.880;5.632;2024-01-30T06:01:07;14.38;;;8.57;;
63536;SDS011;49686;51.880;5.632;2024-01-30T06:03:34;13.43;;;8.40;;
63536;SDS011;49686;51.880;5.632;2024-01-30T06:06:02;14.85;;;8.15;;
63536;SDS011;49686;51.880;5.632;2024-01-30T06:08:29;13.23;;;9.48;;
63536;SDS011;49686;51.880;5.632;2024-01-30T06:10:56;12.77;;;8.60;;
63536;SDS011;49686;51.880;5.632;2024-01-30T06:13:23;12.32;;;7.63;;
63536;SDS011;49686;51.880;5.632;2024-01-30T06:15:50;13.80;;;7.82;;
63536;SDS011;49686;51.880;5.632;2024-01-30T06:18:17;10.77;;;7.45;;
63536;SDS011;49686;51.880;5.632;2024-01-30T06:20:44;14.23;;;8.15;;
63536;SDS011;49686;51.880;5.632;2024-01-30T06:23:12;11.82;;;7.70;;
63536;SDS011;49686;51.880;5.632;2024-01-30T06:25:39;10.88;;;8.10;;
63536;SDS011;49686;51.880;5.632;2024-01-30T06:28:06;12.23;;;8.73;;
63536;SDS011;49686;51.880;5.632;2024-01-30T06:30:33;11.30;;;7.80;;
63536;SDS011;49686;51.880;5.632;2024-01-30T06:32:59;12.05;;;7.72;;
63536;SDS011;49686;51.880;5.632;2024-01-30T06:35:26;11.13;;;7.88;;
63536;SDS011;49686;51.880;5.632;2024-01-30T06:37:53;14.32;;;8.05;;
63536;SDS011;49686;51.880;5.632;2024-01-30T06:40:21;11.48;;;7.95;;
63536;SDS011;49686;51.880;5.632;2024-01-30T06:42:48;11.25;;;7.50;;
63536;SDS011;49686;51.880;5.632;2024-01-30T06:45:16;12.48;;;8.40;;
63536;SDS011;49686;51.880;5.632;2024-01-30T06:47:43;11.07;;;7.82;;
63536;SDS011;49686;51.880;5.632;2024-01-30T06:50:10;9.52;;;7.03;;
63536;SDS011;49686;51.880;5.632;2024-01-30T06:52:37;10.00;;;7.47;;
63536;SDS011;49686;51.880;5.632;2024-01-30T06:55:04;12.45;;;8.07;;
63536;SDS011;49686;51.880;5.632;2024-01-30T06:57:32;9.88;;;7.35;;
63536;SDS011;49686;51.880;5.632;2024-01-30T06:59:59;10.20;;;7.20;;
63536;SDS011;49686;51.880;5.632;2024-01-30T07:02:26;12.05;;;8.55;;
63536;SDS011;49686;51.880;5.632;2024-01-30T07:04:53;13.18;;;8.23;;
63536;SDS011;49686;51.880;5.632;2024-01-30T07:07:20;10.10;;;6.78;;
63536;SDS011;49686;51.880;5.632;2024-01-30T07:09:47;12.90;;;7.95;;
63536;SDS011;49686;51.880;5.632;2024-01-30T07:12:14;12.90;;;7.78;;
63536;SDS011;49686;51.880;5.632;2024-01-30T07:14:42;10.65;;;7.25;;
63536;SDS011;49686;51.880;5.632;2024-01-30T07:17:09;12.50;;;7.72;;
63536;SDS011;49686;51.880;5.632;2024-01-30T07:19:36;9.02;;;6.18;;
63536;SDS011;49686;51.880;5.632;2024-01-30T07:22:03;11.85;;;7.15;;
63536;SDS011;49686;51.880;5.632;2024-01-30T07:24:30;11.13;;;7.20;;
63536;SDS011;49686;51.880;5.632;2024-01-30T07:26:57;12.05;;;7.18;;
63536;SDS011;49686;51.880;5.632;2024-01-30T07:29:24;12.15;;;6.93;;
63536;SDS011;49686;51.880;5.632;2024-01-30T07:31:52;9.18;;;6.30;;
63536;SDS011;49686;51.880;5.632;2024-01-30T07:34:19;10.70;;;6.63;;
63536;SDS011;49686;51.880;5.632;2024-01-30T07:36:46;9.45;;;7.05;;
63536;SDS011;49686;51.880;5.632;2024-01-30T07:39:13;13.05;;;7.50;;
63536;SDS011;49686;51.880;5.632;2024-01-30T07:41:40;12.50;;;8.18;;
63536;SDS011;49686;51.880;5.632;2024-01-30T07:44:06;11.18;;;8.20;;
63536;SDS011;49686;51.880;5.632;2024-01-30T07:46:33;10.77;;;7.00;;
63536;SDS011;49686;51.880;5.632;2024-01-30T07:49:02;10.93;;;7.50;;
63536;SDS011;49686;51.880;5.632;2024-01-30T07:51:29;14.50;;;9.07;;
63536;SDS011;49686;51.880;5.632;2024-01-30T07:53:58;13.35;;;8.98;;
63536;SDS011;49686;51.880;5.632;2024-01-30T07:56:25;12.02;;;7.95;;
63536;SDS011;49686;51.880;5.632;2024-01-30T07:58:52;11.25;;;7.18;;
63536;SDS011;49686;51.880;5.632;2024-01-30T08:01:19;11.63;;;6.97;;
63536;SDS011;49686;51.880;5.632;2024-01-30T08:03:46;12.50;;;7.90;;
63536;SDS011;49686;51.880;5.632;2024-01-30T08:06:14;12.48;;;7.65;;
63536;SDS011;49686;51.880;5.632;2024-01-30T08:08:41;11.80;;;7.45;;
63536;SDS011;49686;51.880;5.632;2024-01-30T08:11:08;12.60;;;7.13;;
63536;SDS011;49686;51.880;5.632;2024-01-30T08:13:35;10.73;;;6.88;;
63536;SDS011;49686;51.880;5.632;2024-01-30T08:16:02;13.13;;;7.63;;
63536;SDS011;49686;51.880;5.632;2024-01-30T08:18:29;9.52;;;6.68;;
63536;SDS011;49686;51.880;5.632;2024-01-30T08:20:56;11.32;;;6.80;;
63536;SDS011;49686;51.880;5.632;2024-01-30T08:23:25;11.40;;;6.97;;
63536;SDS011;49686;51.880;5.632;2024-01-30T08:25:51;12.23;;;7.47;;
63536;SDS011;49686;51.880;5.632;2024-01-30T08:28:18;11.20;;;7.75;;
63536;SDS011;49686;51.880;5.632;2024-01-30T08:30:47;11.27;;;7.25;;
63536;SDS011;49686;51.880;5.632;2024-01-30T08:33:14;10.98;;;7.75;;
63536;SDS011;49686;51.880;5.632;2024-01-30T08:35:41;10.30;;;7.65;;
63536;SDS011;49686;51.880;5.632;2024-01-30T08:38:07;11.52;;;7.32;;
63536;SDS011;49686;51.880;5.632;2024-01-30T08:40:36;13.82;;;7.25;;
63536;SDS011;49686;51.880;5.632;2024-01-30T08:43:03;10.15;;;6.60;;
63536;SDS011;49686;51.880;5.632;2024-01-30T08:45:30;9.80;;;6.78;;
63536;SDS011;49686;51.880;5.632;2024-01-30T08:47:57;12.23;;;7.32;;
63536;SDS011;49686;51.880;5.632;2024-01-30T08:50:24;10.05;;;6.45;;
63536;SDS011;49686;51.880;5.632;2024-01-30T08:52:51;11.85;;;6.57;;
63536;SDS011;49686;51.880;5.632;2024-01-30T08:55:18;12.65;;;7.57;;
63536;SDS011;49686;51.880;5.632;2024-01-30T08:57:46;11.98;;;6.80;;
63536;SDS011;49686;51.880;5.632;2024-01-30T09:00:13;12.93;;;7.13;;
63536;SDS011;49686;51.880;5.632;2024-01-30T09:02:41;12.50;;;6.47;;
63536;SDS011;49686;51.880;5.632;2024-01-30T09:05:08;11.27;;;7.13;;
63536;SDS011;49686;51.880;5.632;2024-01-30T09:07:35;9.75;;;6.88;;
63536;SDS011;49686;51.880;5.632;2024-01-30T09:10:02;10.70;;;7.43;;
63536;SDS011;49686;51.880;5.632;2024-01-30T09:12:30;10.18;;;6.85;;
63536;SDS011;49686;51.880;5.632;2024-01-30T09:14:58;13.15;;;7.78;;
63536;SDS011;49686;51.880;5.632;2024-01-30T09:17:25;13.13;;;7.75;;
63536;SDS011;49686;51.880;5.632;2024-01-30T09:19:51;12.60;;;7.22;;
63536;SDS011;49686;51.880;5.632;2024-01-30T09:22:18;9.93;;;6.15;;
63536;SDS011;49686;51.880;5.632;2024-01-30T09:24:45;9.90;;;6.68;;
63536;SDS011;49686;51.880;5.632;2024-01-30T09:27:12;12.20;;;7.75;;
63536;SDS011;49686;51.880;5.632;2024-01-30T09:29:39;13.23;;;7.13;;
63536;SDS011;49686;51.880;5.632;2024-01-30T09:32:07;10.60;;;6.63;;
63536;SDS011;49686;51.880;5.632;2024-01-30T09:34:35;12.45;;;6.80;;
63536;SDS011;49686;51.880;5.632;2024-01-30T09:37:02;11.68;;;6.78;;
63536;SDS011;49686;51.880;5.632;2024-01-30T09:39:29;13.75;;;6.68;;
63536;SDS011;49686;51.880;5.632;2024-01-30T09:42:02;13.40;;;7.78;;
63536;SDS011;49686;51.880;5.632;2024-01-30T09:44:34;13.20;;;7.30;;
63536;SDS011;49686;51.880;5.632;2024-01-30T09:47:05;9.68;;;6.80;;
63536;SDS011;49686;51.880;5.632;2024-01-30T09:49:33;11.98;;;7.60;;
63536;SDS011;49686;51.880;5.632;2024-01-30T09:52:01;13.20;;;7.13;;
63536;SDS011;49686;51.880;5.632;2024-01-30T09:54:29;12.77;;;7.13;;
63536;SDS011;49686;51.880;5.632;2024-01-30T09:57:01;11.77;;;5.47;;
63536;SDS011;49686;51.880;5.632;2024-01-30T09:59:29;12.43;;;7.20;;
63536;SDS011;49686;51.880;5.632;2024-01-30T10:01:55;10.35;;;6.68;;
63536;SDS011;49686;51.880;5.632;2024-01-30T10:04:23;11.45;;;7.53;;
63536;SDS011;49686;51.880;5.632;2024-01-30T10:06:51;11.45;;;6.35;;
63536;SDS011;49686;51.880;5.632;2024-01-30T10:09:19;9.85;;;6.70;;
63536;SDS011;49686;51.880;5.632;2024-01-30T10:11:45;9.80;;;6.63;;
63536;SDS011;49686;51.880;5.632;2024-01-30T10:14:13;8.40;;;5.82;;
63536;SDS011;49686;51.880;5.632;2024-01-30T10:16:40;13.88;;;7.78;;
63536;SDS011;49686;51.880;5.632;2024-01-30T10:19:07;10.43;;;7.15;;
63536;SDS011;49686;51.880;5.632;2024-01-30T10:21:34;11.57;;;6.68;;
63536;SDS011;49686;51.880;5.632;2024-01-30T10:24:03;9.60;;;6.07;;
63536;SDS011;49686;51.880;5.632;2024-01-30T10:28:57;9.93;;;5.82;;
63536;SDS011;49686;51.880;5.632;2024-01-30T10:31:24;8.57;;;5.60;;
63536;SDS011;49686;51.880;5.632;2024-01-30T10:33:51;9.18;;;5.90;;
63536;SDS011;49686;51.880;5.632;2024-01-30T10:36:28;8.38;;;5.95;;
63536;SDS011;49686;51.880;5.632;2024-01-30T10:38:55;11.25;;;6.68;;
63536;SDS011;49686;51.880;5.632;2024-01-30T10:41:27;15.13;;;7.30;;
63536;SDS011;49686;51.880;5.632;2024-01-30T10:43:58;8.50;;;6.13;;
63536;SDS011;49686;51.880;5.632;2024-01-30T10:46:29;13.40;;;6.82;;
63536;SDS011;49686;51.880;5.632;2024-01-30T10:48:58;10.60;;;6.68;;
63536;SDS011;49686;51.880;5.632;2024-01-30T10:51:26;10.40;;;6.57;;
63536;SDS011;49686;51.880;5.632;2024-01-30T10:53:54;13.50;;;7.03;;
63536;SDS011;49686;51.880;5.632;2024-01-30T10:56:22;12.77;;;6.87;;
63536;SDS011;49686;51.880;5.632;2024-01-30T10:58:51;12.88;;;6.53;;
63536;SDS011;49686;51.880;5.632;2024-01-30T11:01:19;9.52;;;6.10;;
63536;SDS011;49686;51.880;5.632;2024-01-30T11:03:47;10.98;;;7.13;;
63536;SDS011;49686;51.880;5.632;2024-01-30T11:06:14;12.85;;;6.55;;
63536;SDS011;49686;51.880;5.632;2024-01-30T11:08:41;11.70;;;6.70;;
63536;SDS011;49686;51.880;5.632;2024-01-30T11:11:08;10.35;;;6.03;;
63536;SDS011;49686;51.880;5.632;2024-01-30T11:13:36;11.32;;;6.57;;
63536;SDS011;49686;51.880;5.632;2024-01-30T11:16:04;10.68;;;6.88;;
63536;SDS011;49686;51.880;5.632;2024-01-30T11:20:59;12.93;;;6.35;;
63536;SDS011;49686;51.880;5.632;2024-01-30T11:23:26;10.40;;;5.65;;
63536;SDS011;49686;51.880;5.632;2024-01-30T11:25:53;11.63;;;6.88;;
63536;SDS011;49686;51.880;5.632;2024-01-30T11:28:22;12.52;;;6.10;;
63536;SDS011;49686;51.880;5.632;2024-01-30T11:30:49;12.20;;;7.22;;
63536;SDS011;49686;51.880;5.632;2024-01-30T11:33:26;10.75;;;6.47;;
63536;SDS011;49686;51.880;5.632;2024-01-30T11:35:58;9.90;;;6.18;;
63536;SDS011;49686;51.880;5.632;2024-01-30T11:38:26;9.93;;;6.38;;
63536;SDS011;49686;51.880;5.632;2024-01-30T11:40:54;8.85;;;6.53;;
63536;SDS011;49686;51.880;5.632;2024-01-30T11:43:21;11.57;;;7.28;;
63536;SDS011;49686;51.880;5.632;2024-01-30T11:45:48;12.60;;;7.30;;
63536;SDS011;49686;51.880;5.632;2024-01-30T11:48:16;9.13;;;6.22;;
63536;SDS011;49686;51.880;5.632;2024-01-30T11:50:44;9.20;;;6.45;;
63536;SDS011;49686;51.880;5.632;2024-01-30T11:53:11;9.77;;;5.72;;
63536;SDS011;49686;51.880;5.632;2024-01-30T11:55:38;11.63;;;7.90;;
63536;SDS011;49686;51.880;5.632;2024-01-30T11:58:05;11.38;;;6.40;;
63536;SDS011;49686;51.880;5.632;2024-01-30T12:00:32;11.60;;;7.65;;
63536;SDS011;49686;51.880;5.632;2024-01-30T12:02:59;9.93;;;6.78;;
63536;SDS011;49686;51.880;5.632;2024-01-30T12:05:28;10.75;;;7.55;;
63536;SDS011;49686;51.880;5.632;2024-01-30T12:07:55;6.13;;;4.38;;
63536;SDS011;49686;51.880;5.632;2024-01-30T12:10:22;8.25;;;5.80;;
63536;SDS011;49686;51.880;5.632;2024-01-30T12:12:49;7.25;;;4.45;;
63536;SDS011;49686;51.880;5.632;2024-01-30T12:15:19;6.95;;;4.90;;
63536;SDS011;49686;51.880;5.632;2024-01-30T12:17:48;8.00;;;4.10;;
63536;SDS011;49686;51.880;5.632;2024-01-30T12:20:15;6.13;;;3.70;;
63536;SDS011;49686;51.880;5.632;2024-01-30T12:22:47;6.03;;;3.83;;
63536;SDS011;49686;51.880;5.632;2024-01-30T12:25:14;8.63;;;4.07;;
63536;SDS011;49686;51.880;5.632;2024-01-30T12:27:43;7.13;;;2.90;;
63536;SDS011;49686;51.880;5.632;2024-01-30T12:30:11;8.73;;;2.83;;
63536;SDS011;49686;51.880;5.632;2024-01-30T12:32:39;7.00;;;2.67;;
63536;SDS011;49686;51.880;5.632;2024-01-30T12:35:07;6.82;;;2.97;;
63536;SDS011;49686;51.880;5.632;2024-01-30T12:37:35;7.03;;;2.70;;
63536;SDS011;49686;51.880;5.632;2024-01-30T12:40:03;6.28;;;2.90;;
63536;SDS011;49686;51.880;5.632;2024-01-30T12:42:31;4.80;;;1.95;;
63536;SDS011;49686;51.880;5.632;2024-01-30T12:44:58;8.18;;;2.63;;
63536;SDS011;49686;51.880;5.632;2024-01-30T12:47:26;9.27;;;2.83;;
63536;SDS011;49686;51.880;5.632;2024-01-30T12:49:53;5.90;;;2.35;;
63536;SDS011;49686;51.880;5.632;2024-01-30T12:52:20;6.20;;;2.00;;
63536;SDS011;49686;51.880;5.632;2024-01-30T12:54:48;5.10;;;2.20;;
63536;SDS011;49686;51.880;5.632;2024-01-30T12:57:17;3.30;;;1.42;;
63536;SDS011;49686;51.880;5.632;2024-01-30T12:59:45;3.85;;;1.17;;
63536;SDS011;49686;51.880;5.632;2024-01-30T13:02:12;2.15;;;1.00;;
63536;SDS011;49686;51.880;5.632;2024-01-30T13:04:39;3.67;;;1.00;;
63536;SDS011;49686;51.880;5.632;2024-01-30T13:07:07;1.95;;;0.55;;
63536;SDS011;49686;51.880;5.632;2024-01-30T13:09:34;2.45;;;1.10;;
63536;SDS011;49686;51.880;5.632;2024-01-30T13:12:00;1.88;;;0.90;;
63536;SDS011;49686;51.880;5.632;2024-01-30T13:14:29;3.20;;;1.55;;
63536;SDS011;49686;51.880;5.632;2024-01-30T13:16:56;3.08;;;1.80;;
63536;SDS011;49686;51.880;5.632;2024-01-30T13:19:22;2.45;;;0.82;;
63536;SDS011;49686;51.880;5.632;2024-01-30T13:21:49;1.73;;;0.70;;
63536;SDS011;49686;51.880;5.632;2024-01-30T13:24:16;1.88;;;1.10;;
63536;SDS011;49686;51.880;5.632;2024-01-30T13:26:43;1.30;;;0.73;;
63536;SDS011;49686;51.880;5.632;2024-01-30T13:29:11;3.50;;;0.80;;
63536;SDS011;49686;51.880;5.632;2024-01-30T13:31:39;4.10;;;2.05;;
63536;SDS011;49686;51.880;5.632;2024-01-30T13:34:06;3.47;;;2.10;;
63536;SDS011;49686;51.880;5.632;2024-01-30T13:36:34;8.77;;;2.55;;
63536;SDS011;49686;51.880;5.632;2024-01-30T13:39:01;5.65;;;2.20;;
63536;SDS011;49686;51.880;5.632;2024-01-30T13:41:28;7.25;;;3.13;;
63536;SDS011;49686;51.880;5.632;2024-01-30T13:43:55;6.35;;;3.53;;
63536;SDS011;49686;51.880;5.632;2024-01-30T13:46:22;7.78;;;2.90;;
63536;SDS011;49686;51.880;5.632;2024-01-30T13:48:50;9.25;;;3.65;;
63536;SDS011;49686;51.880;5.632;2024-01-30T13:51:17;6.68;;;3.83;;
63536;SDS011;49686;51.880;5.632;2024-01-30T13:53:44;8.40;;;3.58;;
63536;SDS011;49686;51.880;5.632;2024-01-30T13:56:11;10.90;;;4.50;;
63536;SDS011;49686;51.880;5.632;2024-01-30T13:58:38;7.93;;;4.00;;
63536;SDS011;49686;51.880;5.632;2024-01-30T14:01:05;10.93;;;4.00;;
63536;SDS011;49686;51.880;5.632;2024-01-30T14:03:32;8.27;;;3.80;;
63536;SDS011;49686;51.880;5.632;2024-01-30T14:06:01;7.00;;;3.35;;
63536;SDS011;49686;51.880;5.632;2024-01-30T14:08:27;7.20;;;3.28;;
63536;SDS011;49686;51.880;5.632;2024-01-30T14:10:54;4.82;;;2.92;;
63536;SDS011;49686;51.880;5.632;2024-01-30T14:13:21;8.27;;;3.33;;
63536;SDS011;49686;51.880;5.632;2024-01-30T14:15:48;7.00;;;2.60;;
63536;SDS011;49686;51.880;5.632;2024-01-30T14:18:15;9.00;;;3.85;;
63536;SDS011;49686;51.880;5.632;2024-01-30T14:20:42;4.32;;;2.78;;
63536;SDS011;49686;51.880;5.632;2024-01-30T14:23:10;4.75;;;2.88;;
63536;SDS011;49686;51.880;5.632;2024-01-30T14:25:37;11.50;;;3.53;;
63536;SDS011;49686;51.880;5.632;2024-01-30T14:28:04;8.93;;;4.10;;
63536;SDS011;49686;51.880;5.632;2024-01-30T14:33:00;7.85;;;3.70;;
63536;SDS011;49686;51.880;5.632;2024-01-30T14:35:27;7.97;;;3.80;;
63536;SDS011;49686;51.880;5.632;2024-01-30T14:37:54;9.23;;;4.43;;
63536;SDS011;49686;51.880;5.632;2024-01-30T14:40:22;7.40;;;3.67;;
63536;SDS011;49686;51.880;5.632;2024-01-30T14:42:49;6.13;;;3.28;;
63536;SDS011;49686;51.880;5.632;2024-01-30T14:45:16;6.10;;;2.85;;
63536;SDS011;49686;51.880;5.632;2024-01-30T14:47:43;5.78;;;2.45;;